Time;durP1;ratioP1;P1;durP2;ratioP2;P2;SDS_P1;SDS_P2;PMS_P1;PMS_P2;Temp;Humidity;BMP_temperature;BMP_pressure;BME280_temperature;BME280_humidity;BME280_pressure;Samples;Min_cycle;Max_cycle;Signal;HPM_P1;HPM_P2
2021/12/28 00:01:01;;;;;;;44.55;21.35;;;4.40;99.90;;;;;;5008904;28;20034;-67
2021/12/28 00:03:29;;;;;;;38.53;20.73;;;4.30;99.90;;;;;;5009085;28;20034;-67
2021/12/28 00:05:58;;;;;;;38.78;21.85;;;4.40;99.90;;;;;;5009253;28;20045;-67
2021/12/28 00:08:26;;;;;;;36.97;20.15;;;4.40;99.90;;;;;;5008644;28;20066;-67
2021/12/28 00:10:55;;;;;;;39.50;21.13;;;4.40;99.90;;;;;;5013660;28;20064;-66
2021/12/28 00:13:24;;;;;;;38.88;19.77;;;4.40;99.90;;;;;;5005919;28;20046;-67
2021/12/28 00:18:25;;;;;;;40.38;19.55;;;4.50;99.90;;;;;;5008963;28;20065;-67
2021/12/28 00:20:57;;;;;;;33.15;19.73;;;4.50;99.90;;;;;;5008902;28;20046;-66
2021/12/28 00:23:32;;;;;;;38.88;21.10;;;4.50;99.90;;;;;;5009176;28;20125;-66
2021/12/28 00:26:00;;;;;;;35.35;18.75;;;4.50;99.90;;;;;;5009212;28;20076;-66
2021/12/28 00:28:27;;;;;;;33.10;18.60;;;4.50;99.90;;;;;;5008877;28;20037;-66
2021/12/28 00:30:54;;;;;;;32.70;18.60;;;4.60;99.90;;;;;;5024283;28;20069;-67
2021/12/28 00:33:24;;;;;;;35.47;19.30;;;4.60;99.90;;;;;;5007205;28;20481;-67
2021/12/28 00:35:52;;;;;;;33.28;19.23;;;4.60;99.90;;;;;;5008894;28;20049;-67
2021/12/28 00:38:23;;;;;;;35.40;19.38;;;4.60;99.90;;;;;;5008830;28;20045;-66
2021/12/28 00:40:53;;;;;;;34.65;19.90;;;4.60;99.90;;;;;;5012331;28;20041;-67
2021/12/28 00:43:21;;;;;;;30.83;17.73;;;4.60;99.90;;;;;;5012225;28;20045;-67
2021/12/28 00:45:49;;;;;;;29.58;18.17;;;4.70;99.90;;;;;;5012343;28;20042;-67
2021/12/28 00:48:17;;;;;;;32.00;18.45;;;4.70;99.90;;;;;;5010982;28;20096;-67
2021/12/28 00:50:45;;;;;;;31.63;17.40;;;4.70;99.90;;;;;;5012429;28;20511;-67
2021/12/28 00:53:13;;;;;;;33.45;17.88;;;4.70;99.90;;;;;;5011927;28;20052;-67
2021/12/28 00:55:40;;;;;;;33.15;17.92;;;4.70;99.90;;;;;;5012285;28;20041;-67
2021/12/28 00:58:07;;;;;;;30.77;17.08;;;4.70;99.90;;;;;;5012135;28;20049;-67
2021/12/28 01:00:38;;;;;;;29.65;17.20;;;4.70;99.90;;;;;;5012236;28;20061;-67
2021/12/28 01:03:07;;;;;;;33.88;18.48;;;4.70;99.90;;;;;;5010472;28;20542;-67
2021/12/28 01:05:36;;;;;;;31.23;17.30;;;4.70;99.90;;;;;;5018336;28;20048;-67
2021/12/28 01:08:04;;;;;;;34.10;17.95;;;4.80;99.90;;;;;;5012176;28;20045;-67
2021/12/28 01:10:36;;;;;;;34.85;18.98;;;4.80;99.90;;;;;;5011863;28;20034;-67
2021/12/28 01:13:03;;;;;;;;;;;4.80;99.90;;;;;;5012271;28;20053;-67
2021/12/28 01:15:31;;;;;;;30.00;16.92;;;4.80;99.90;;;;;;5011874;28;19922;-67
2021/12/28 01:17:59;;;;;;;26.67;16.20;;;4.80;99.90;;;;;;5011405;28;20040;-66
2021/12/28 01:20:27;;;;;;;32.35;17.38;;;4.80;99.90;;;;;;5009440;28;20042;-67
2021/12/28 01:22:55;;;;;;;29.08;17.55;;;4.80;99.90;;;;;;5008021;28;20045;-67
2021/12/28 01:25:23;;;;;;;33.70;17.90;;;4.80;99.90;;;;;;5011808;28;20046;-67
2021/12/28 01:27:51;;;;;;;29.27;17.00;;;4.80;99.90;;;;;;5011571;28;20045;-67
2021/12/28 01:30:20;;;;;;;29.85;17.20;;;4.80;99.90;;;;;;5026738;28;20034;-67
2021/12/28 01:32:51;;;;;;;30.20;17.35;;;4.80;99.90;;;;;;5026741;28;20038;-67
2021/12/28 01:35:19;;;;;;;27.85;17.63;;;4.80;99.90;;;;;;5006153;28;20050;-67
2021/12/28 01:37:47;;;;;;;27.45;16.00;;;4.70;99.90;;;;;;5011485;28;20041;-67
2021/12/28 01:40:21;;;;;;;31.00;17.00;;;4.80;99.90;;;;;;5011565;28;20061;-67
2021/12/28 01:43:00;;;;;;;29.73;17.45;;;4.80;99.90;;;;;;5005762;28;20712;-67
2021/12/28 01:45:37;;;;;;;27.33;16.52;;;4.80;99.90;;;;;;5011039;28;20053;-67
2021/12/28 01:48:07;;;;;;;27.83;15.60;;;4.80;99.90;;;;;;5011279;28;20057;-67
2021/12/28 01:50:35;;;;;;;27.30;16.05;;;4.90;99.90;;;;;;5009709;28;20038;-67
2021/12/28 01:53:05;;;;;;;28.15;15.85;;;4.90;99.90;;;;;;5010577;28;20077;-67
2021/12/28 01:55:34;;;;;;;29.63;17.20;;;4.90;99.90;;;;;;5010544;28;20056;-67
2021/12/28 01:58:02;;;;;;;27.95;16.38;;;4.90;99.90;;;;;;5011054;28;20140;-67
2021/12/28 02:00:30;;;;;;;28.50;16.38;;;4.90;99.90;;;;;;5011167;28;20048;-67
2021/12/28 02:02:59;;;;;;;23.35;14.85;;;4.90;99.90;;;;;;5010506;28;20104;-67
2021/12/28 02:05:26;;;;;;;26.20;15.77;;;4.90;99.90;;;;;;5010808;28;20042;-67
2021/12/28 02:07:53;;;;;;;23.60;15.10;;;4.90;99.90;;;;;;5025644;28;20065;-67
2021/12/28 02:10:21;;;;;;;25.65;14.20;;;4.90;99.90;;;;;;5009764;28;20042;-67
2021/12/28 02:12:48;;;;;;;28.00;15.27;;;4.80;99.90;;;;;;5009889;28;20497;-67
2021/12/28 02:15:15;;;;;;;23.63;15.45;;;4.70;99.90;;;;;;5010711;28;20069;-67
2021/12/28 02:17:43;;;;;;;25.00;14.55;;;4.50;99.90;;;;;;5008965;28;20077;-67
2021/12/28 02:20:13;;;;;;;25.45;15.13;;;4.40;99.90;;;;;;5010862;28;20042;-67
2021/12/28 02:22:41;;;;;;;26.13;15.60;;;4.30;99.90;;;;;;5010776;28;20037;-67
2021/12/28 02:25:11;;;;;;;27.15;16.23;;;4.30;99.90;;;;;;5009968;28;20049;-67
2021/12/28 02:27:39;;;;;;;25.10;14.73;;;4.20;99.90;;;;;;5010447;28;20046;-67
2021/12/28 02:30:12;;;;;;;26.27;16.17;;;4.10;99.90;;;;;;5009714;28;20038;-67
2021/12/28 02:32:40;;;;;;;29.98;15.63;;;4.10;99.90;;;;;;5009896;28;20054;-67
2021/12/28 02:35:10;;;;;;;25.48;15.30;;;4.10;99.90;;;;;;5010695;28;20575;-67
2021/12/28 02:37:38;;;;;;;30.67;16.48;;;4.00;99.90;;;;;;5009878;28;20046;-67
2021/12/28 02:40:07;;;;;;;25.15;15.82;;;4.10;99.90;;;;;;5009928;28;20061;-67
2021/12/28 02:42:35;;;;;;;28.92;17.95;;;4.10;99.90;;;;;;5008575;28;20046;-67
2021/12/28 02:45:14;;;;;;;32.83;17.80;;;4.20;99.90;;;;;;5009840;28;20062;-67
2021/12/28 02:47:44;;;;;;;24.83;15.45;;;4.30;99.90;;;;;;5009471;28;20618;-67
2021/12/28 02:50:15;;;;;;;27.80;16.38;;;4.30;99.90;;;;;;5012604;28;20064;-67
2021/12/28 02:52:42;;;;;;;25.00;16.42;;;4.40;99.90;;;;;;5034919;28;20046;-67
2021/12/28 02:55:12;;;;;;;28.88;16.35;;;4.40;99.90;;;;;;5005633;28;20056;-67
2021/12/28 02:58:02;;;;;;;27.27;16.00;;;4.40;99.90;;;;;;5010039;28;20042;-68
2021/12/28 03:00:38;;;;;;;25.27;15.05;;;4.40;99.90;;;;;;5010213;28;20050;-67
2021/12/28 03:03:13;;;;;;;26.58;15.75;;;4.30;99.90;;;;;;4997991;28;20069;-67
2021/12/28 03:05:42;;;;;;;24.95;15.18;;;4.30;99.90;;;;;;5009970;28;20061;-68
2021/12/28 03:08:10;;;;;;;25.30;14.73;;;4.20;99.90;;;;;;5009554;28;20056;-67
2021/12/28 03:10:39;;;;;;;28.52;16.05;;;4.20;99.90;;;;;;5009915;28;20085;-67
2021/12/28 03:13:08;;;;;;;27.42;16.70;;;4.10;99.90;;;;;;5009213;28;20444;-67
2021/12/28 03:15:35;;;;;;;28.02;17.05;;;4.00;99.90;;;;;;5008687;28;20045;-67
2021/12/28 03:18:03;;;;;;;28.05;16.58;;;4.00;99.90;;;;;;5009227;28;20041;-67
2021/12/28 03:20:36;;;;;;;28.45;17.08;;;4.00;99.90;;;;;;5009868;28;20053;-67
2021/12/28 03:23:04;;;;;;;27.30;15.93;;;4.00;99.90;;;;;;5009940;28;20049;-67
2021/12/28 03:25:32;;;;;;;25.92;16.13;;;4.00;99.90;;;;;;5009022;28;20053;-67
2021/12/28 03:28:02;;;;;;;29.02;17.30;;;4.00;99.90;;;;;;5009273;28;20413;-67
2021/12/28 03:30:30;;;;;;;29.02;17.70;;;4.00;99.90;;;;;;5009258;28;20042;-67
2021/12/28 03:32:58;;;;;;;31.20;17.00;;;4.00;99.90;;;;;;5009420;28;20060;-67
2021/12/28 03:35:25;;;;;;;29.70;17.23;;;4.00;99.90;;;;;;5009331;28;20042;-67
2021/12/28 03:37:53;;;;;;;28.00;16.80;;;4.00;99.90;;;;;;5003022;28;20042;-67
2021/12/28 03:40:20;;;;;;;30.80;18.45;;;4.00;99.90;;;;;;5008985;28;20045;-67
2021/12/28 03:42:47;;;;;;;30.90;18.35;;;4.00;99.90;;;;;;5008190;28;20576;-67
2021/12/28 03:45:15;;;;;;;33.30;19.30;;;4.00;99.90;;;;;;5009097;28;20139;-67
2021/12/28 03:47:42;;;;;;;31.65;19.08;;;4.00;99.90;;;;;;5008829;28;20129;-66
2021/12/28 03:50:11;;;;;;;30.90;17.70;;;4.10;99.90;;;;;;5009026;28;20567;-66
2021/12/28 03:52:39;;;;;;;36.85;19.08;;;4.10;99.90;;;;;;5009894;28;20042;-66
2021/12/28 03:55:09;;;;;;;31.80;18.45;;;4.20;99.90;;;;;;5009629;28;20058;-67
2021/12/28 03:57:39;;;;;;;35.17;18.70;;;4.20;99.90;;;;;;5007445;28;20046;-67
2021/12/28 04:00:10;;;;;;;29.77;16.55;;;4.30;99.90;;;;;;5009021;28;20042;-67
2021/12/28 04:02:38;;;;;;;32.55;19.33;;;4.30;99.90;;;;;;5008422;28;20109;-67
2021/12/28 04:05:06;;;;;;;30.90;17.33;;;4.40;99.90;;;;;;5008954;28;20060;-67
2021/12/28 04:07:33;;;;;;;32.65;17.90;;;4.50;99.90;;;;;;5009235;28;20100;-67
2021/12/28 04:10:03;;;;;;;32.53;19.05;;;4.50;99.90;;;;;;5008514;28;20050;-67
2021/12/28 04:12:32;;;;;;;31.90;18.35;;;4.60;99.90;;;;;;5010645;28;20046;-67
2021/12/28 04:14:59;;;;;;;34.97;20.55;;;4.60;99.90;;;;;;5010730;28;20048;-67
2021/12/28 04:17:28;;;;;;;36.85;18.92;;;4.60;99.90;;;;;;5012882;28;20057;-67
2021/12/28 04:19:56;;;;;;;33.55;18.10;;;4.60;99.90;;;;;;5011338;28;20072;-67
2021/12/28 04:22:23;;;;;;;34.70;18.17;;;4.60;99.90;;;;;;5013122;28;20073;-67
2021/12/28 04:24:51;;;;;;;35.47;19.05;;;4.50;99.90;;;;;;5012619;28;20042;-66
2021/12/28 04:27:22;;;;;;;31.98;17.98;;;4.50;99.90;;;;;;5012941;28;20056;-66
2021/12/28 04:29:49;;;;;;;34.95;19.63;;;4.50;99.90;;;;;;5012402;28;20042;-66
2021/12/28 04:32:17;;;;;;;38.60;18.45;;;4.50;99.90;;;;;;5028150;28;20100;-66
2021/12/28 04:34:49;;;;;;;41.75;20.90;;;4.50;99.90;;;;;;5011149;28;20046;-66
2021/12/28 04:37:17;;;;;;;41.53;19.40;;;4.50;99.90;;;;;;5012878;28;20046;-66
2021/12/28 04:39:44;;;;;;;43.55;21.27;;;4.60;99.90;;;;;;5012983;28;20052;-67
2021/12/28 04:42:11;;;;;;;42.60;20.65;;;4.60;99.90;;;;;;5027060;28;20516;-67
2021/12/28 04:44:38;;;;;;;39.47;21.35;;;4.60;99.90;;;;;;5009381;28;20112;-67
2021/12/28 04:47:05;;;;;;;40.40;20.92;;;4.60;99.90;;;;;;5010790;28;20040;-67
2021/12/28 04:49:33;;;;;;;36.58;20.42;;;4.60;99.90;;;;;;5011627;28;20096;-67
2021/12/28 04:52:01;;;;;;;40.38;20.08;;;4.60;99.90;;;;;;5012088;28;20492;-67
2021/12/28 04:54:29;;;;;;;41.28;21.65;;;4.60;99.90;;;;;;5012186;28;20030;-67
2021/12/28 04:56:56;;;;;;;41.35;19.95;;;4.70;99.90;;;;;;5043757;28;20073;-67
2021/12/28 04:59:23;;;;;;;40.78;20.20;;;4.70;99.90;;;;;;5011471;28;20053;-67
2021/12/28 05:01:50;;;;;;;39.40;19.95;;;4.70;99.90;;;;;;5012108;28;20077;-67
2021/12/28 05:04:18;;;;;;;35.00;19.40;;;4.80;99.90;;;;;;5011672;28;20184;-67
2021/12/28 05:06:45;;;;;;;39.08;19.90;;;4.80;99.90;;;;;;5012124;28;20046;-67
2021/12/28 05:09:15;;;;;;;38.55;18.95;;;4.80;99.90;;;;;;5011892;28;20049;-67
2021/12/28 05:11:43;;;;;;;40.88;20.60;;;4.80;99.90;;;;;;5011440;28;20034;-67
2021/12/28 05:14:11;;;;;;;37.92;18.25;;;4.80;99.90;;;;;;5009176;28;20125;-67
2021/12/28 05:16:39;;;;;;;35.72;18.70;;;4.80;99.90;;;;;;5011761;28;20042;-67
2021/12/28 05:19:06;;;;;;;44.67;21.05;;;4.80;99.90;;;;;;5011911;28;20112;-67
2021/12/28 05:21:35;;;;;;;41.05;19.55;;;4.80;99.90;;;;;;5011728;28;20054;-67
2021/12/28 05:24:03;;;;;;;43.83;20.35;;;4.80;99.90;;;;;;5011678;28;20057;-67
2021/12/28 05:26:30;;;;;;;48.90;22.67;;;4.80;99.90;;;;;;5010454;28;20038;-67
2021/12/28 05:28:58;;;;;;;42.20;22.88;;;4.80;99.90;;;;;;5011335;28;20057;-67
2021/12/28 05:31:30;;;;;;;40.47;19.50;;;4.80;99.90;;;;;;5011268;28;20038;-67
2021/12/28 05:33:58;;;;;;;42.80;19.60;;;4.80;99.90;;;;;;5011788;28;20160;-67
2021/12/28 05:36:26;;;;;;;38.83;19.30;;;4.80;99.90;;;;;;5011093;28;20038;-67
2021/12/28 05:38:53;;;;;;;35.30;18.73;;;4.80;99.90;;;;;;5011816;28;20049;-67
2021/12/28 05:41:21;;;;;;;47.85;20.08;;;4.80;99.90;;;;;;5026716;28;20049;-68
2021/12/28 05:43:48;;;;;;;36.78;19.13;;;4.80;99.90;;;;;;5000324;28;20417;-67
2021/12/28 05:46:16;;;;;;;49.30;21.00;;;4.80;99.90;;;;;;5010481;28;20034;-67
2021/12/28 05:48:43;;;;;;;42.63;21.42;;;4.90;99.90;;;;;;5010110;28;20069;-67
2021/12/28 05:51:10;;;;;;;41.55;21.42;;;4.90;99.90;;;;;;5010754;28;20042;-67
2021/12/28 05:53:38;;;;;;;41.03;19.70;;;4.90;99.90;;;;;;5008598;28;20391;-67
2021/12/28 05:56:05;;;;;;;38.88;20.00;;;4.90;99.90;;;;;;5011393;28;20489;-67
2021/12/28 05:58:33;;;;;;;40.42;20.00;;;4.90;99.90;;;;;;5010881;28;20041;-67
2021/12/28 06:01:00;;;;;;;39.05;19.88;;;4.90;99.90;;;;;;5009883;28;20042;-67
2021/12/28 06:03:28;;;;;;;38.20;19.58;;;4.90;99.90;;;;;;5002163;28;20042;-67
2021/12/28 06:05:55;;;;;;;44.83;22.63;;;5.00;99.90;;;;;;5010117;28;20457;-67
2021/12/28 06:08:22;;;;;;;41.80;20.98;;;5.00;99.90;;;;;;5003659;28;20096;-67
2021/12/28 06:11:03;;;;;;;39.35;18.58;;;5.00;99.90;;;;;;5010281;28;20443;-67
2021/12/28 06:13:30;;;;;;;35.78;17.88;;;5.00;99.90;;;;;;5011104;28;20096;-67
2021/12/28 06:15:58;;;;;;;37.10;18.27;;;5.00;99.90;;;;;;5010988;28;20065;-67
2021/12/28 06:18:25;;;;;;;40.35;18.75;;;5.00;99.90;;;;;;5009401;28;20408;-66
2021/12/28 06:20:52;;;;;;;42.10;18.88;;;5.00;99.90;;;;;;5009520;28;20054;-66
2021/12/28 06:23:19;;;;;;;39.33;19.48;;;5.00;99.90;;;;;;5008875;28;20072;-66
2021/12/28 06:25:47;;;;;;;37.03;18.65;;;5.00;99.90;;;;;;5024069;28;20077;-67
2021/12/28 06:28:14;;;;;;;37.15;18.50;;;5.00;99.90;;;;;;4990624;28;20030;-67
2021/12/28 06:30:41;;;;;;;33.03;17.77;;;5.00;99.90;;;;;;5010534;28;20493;-69
2021/12/28 06:33:09;;;;;;;41.60;19.58;;;5.00;99.90;;;;;;5010408;28;20148;-67
2021/12/28 06:35:36;;;;;;;35.08;17.30;;;5.00;99.90;;;;;;5010450;28;20053;-67
2021/12/28 06:38:04;;;;;;;36.65;19.23;;;5.00;99.90;;;;;;5010058;28;20057;-66
2021/12/28 06:40:31;;;;;;;41.17;18.23;;;5.00;99.90;;;;;;5010368;28;20050;-67
2021/12/28 06:42:59;;;;;;;40.28;19.80;;;5.00;99.90;;;;;;5009901;28;20042;-67
2021/12/28 06:45:26;;;;;;;38.97;18.55;;;5.10;99.90;;;;;;5009096;28;20485;-67
2021/12/28 06:47:54;;;;;;;36.05;18.70;;;5.00;99.90;;;;;;5010107;28;20141;-67
2021/12/28 06:50:21;;;;;;;40.20;18.85;;;5.00;99.90;;;;;;5009914;28;20038;-67
2021/12/28 06:52:49;;;;;;;35.05;18.10;;;5.00;99.90;;;;;;5006305;28;20054;-67
2021/12/28 06:55:16;;;;;;;40.08;21.10;;;5.00;99.90;;;;;;5008358;28;20069;-67
2021/12/28 06:57:43;;;;;;;34.35;18.75;;;5.00;99.90;;;;;;5009674;28;20501;-67
2021/12/28 07:00:15;;;;;;;38.85;18.80;;;5.00;99.90;;;;;;5009714;28;20107;-67
2021/12/28 07:02:42;;;;;;;36.92;18.05;;;5.00;99.90;;;;;;5009475;28;20389;-67
2021/12/28 07:05:12;;;;;;;34.40;18.00;;;5.00;99.90;;;;;;5009823;28;20121;-66
2021/12/28 07:07:40;;;;;;;33.45;17.55;;;5.00;99.90;;;;;;5009826;28;20034;-66
2021/12/28 07:10:09;;;;;;;33.15;17.83;;;5.00;99.90;;;;;;5009624;28;20400;-66
2021/12/28 07:12:37;;;;;;;32.25;16.90;;;5.00;99.90;;;;;;5007489;28;20100;-67
2021/12/28 07:15:06;;;;;;;37.00;18.27;;;5.00;99.90;;;;;;5008931;28;21587;-66
2021/12/28 07:17:33;;;;;;;35.38;17.33;;;5.00;99.90;;;;;;5009335;28;20481;-67
2021/12/28 07:20:01;;;;;;;30.60;16.60;;;5.00;99.90;;;;;;5008184;28;20046;-66
2021/12/28 07:22:28;;;;;;;33.22;16.70;;;5.00;99.90;;;;;;5008080;28;20037;-67
2021/12/28 07:24:55;;;;;;;31.98;16.58;;;5.00;99.90;;;;;;5009433;28;20060;-67
2021/12/28 07:27:22;;;;;;;30.02;16.10;;;4.90;99.90;;;;;;5025066;28;20112;-66
2021/12/28 07:29:50;;;;;;;30.13;16.00;;;4.90;99.90;;;;;;5008870;28;20092;-66
2021/12/28 07:32:17;;;;;;;32.92;18.42;;;4.90;99.90;;;;;;5009331;28;20823;-67
2021/12/28 07:34:45;;;;;;;41.45;21.70;;;4.90;99.90;;;;;;5009104;28;20053;-67
2021/12/28 07:37:12;;;;;;;41.97;23.48;;;4.90;99.90;;;;;;5006870;28;20050;-67
2021/12/28 07:39:39;;;;;;;31.17;17.30;;;4.90;99.90;;;;;;5003328;28;20077;-67
2021/12/28 07:42:08;;;;;;;28.20;15.52;;;4.90;99.90;;;;;;5004895;28;20461;-66
2021/12/28 07:44:36;;;;;;;29.45;15.80;;;4.90;99.90;;;;;;5007053;28;20042;-67
2021/12/28 07:47:04;;;;;;;30.33;16.60;;;4.90;99.90;;;;;;5007728;28;20034;-66
2021/12/28 07:49:32;;;;;;;27.88;15.13;;;4.90;99.90;;;;;;5010648;28;20038;-67
2021/12/28 07:52:00;;;;;;;27.15;15.00;;;4.80;99.90;;;;;;5011676;28;20493;-66
2021/12/28 07:54:27;;;;;;;24.75;14.57;;;4.80;99.90;;;;;;5012983;28;20038;-66
2021/12/28 07:56:54;;;;;;;25.45;14.50;;;4.90;99.90;;;;;;5014229;28;20045;-67
2021/12/28 07:59:22;;;;;;;26.85;14.80;;;4.90;99.90;;;;;;5008649;28;20113;-67
2021/12/28 08:01:49;;;;;;;29.48;15.80;;;4.80;99.90;;;;;;5034730;28;20087;-66
2021/12/28 08:04:17;;;;;;;35.92;21.05;;;4.90;99.90;;;;;;4998848;28;20046;-66
2021/12/28 08:06:44;;;;;;;32.22;16.95;;;4.80;99.90;;;;;;5013859;28;20125;-66
2021/12/28 08:09:12;;;;;;;26.77;14.38;;;4.80;99.90;;;;;;5012374;28;20034;-66
2021/12/28 08:11:39;;;;;;;28.27;15.30;;;4.80;99.90;;;;;;5012337;28;20447;-66
2021/12/28 08:14:06;;;;;;;24.38;14.23;;;4.80;99.90;;;;;;5011431;28;20104;-66
2021/12/28 08:16:33;;;;;;;25.15;14.23;;;4.80;99.90;;;;;;5011896;28;20041;-66
2021/12/28 08:19:02;;;;;;;24.00;12.88;;;4.80;99.90;;;;;;5008637;28;20107;-66
2021/12/28 08:21:44;;;;;;;32.88;18.42;;;4.80;99.90;;;;;;5010877;28;20042;-66
2021/12/28 08:24:11;;;;;;;32.72;18.05;;;4.80;99.90;;;;;;5010496;28;20034;-66
2021/12/28 08:26:39;;;;;;;25.10;13.13;;;4.90;99.90;;;;;;5012442;28;20049;-66
2021/12/28 08:29:06;;;;;;;21.02;11.55;;;4.90;99.90;;;;;;5012384;28;20049;-66
2021/12/28 08:31:35;;;;;;;24.15;13.30;;;4.90;99.90;;;;;;5011379;28;20049;-66
2021/12/28 08:34:03;;;;;;;23.73;12.40;;;4.90;99.90;;;;;;5043511;28;20582;-66
2021/12/28 08:36:30;;;;;;;22.42;12.35;;;4.90;99.90;;;;;;5011103;28;20057;-66
2021/12/28 08:38:58;;;;;;;21.38;12.13;;;4.90;99.90;;;;;;5010874;28;20050;-66
2021/12/28 08:41:25;;;;;;;22.85;12.35;;;4.90;99.90;;;;;;5027040;28;20807;-67
2021/12/28 08:43:52;;;;;;;21.13;11.68;;;4.90;99.90;;;;;;5011851;28;20481;-66
2021/12/28 08:46:20;;;;;;;23.48;12.43;;;4.90;99.90;;;;;;5012231;28;20444;-66
2021/12/28 08:48:48;;;;;;;21.58;11.48;;;4.90;99.90;;;;;;5027166;28;20052;-67
2021/12/28 08:51:15;;;;;;;22.52;11.73;;;5.00;99.90;;;;;;5011952;28;20087;-67
2021/12/28 08:53:42;;;;;;;21.55;11.23;;;5.00;99.90;;;;;;5009807;28;20042;-66
2021/12/28 08:56:09;;;;;;;20.67;10.43;;;5.00;99.90;;;;;;5010091;28;20049;-66
2021/12/28 08:58:37;;;;;;;20.00;10.07;;;5.00;99.90;;;;;;5010373;28;20507;-65
2021/12/28 09:01:04;;;;;;;22.90;11.63;;;5.10;99.90;;;;;;5009233;28;20537;-67
2021/12/28 09:03:32;;;;;;;28.75;13.80;;;5.20;99.90;;;;;;5011372;28;20061;-67
2021/12/28 09:06:02;;;;;;;22.60;11.48;;;5.40;99.90;;;;;;5010140;28;20046;-66
2021/12/28 09:08:29;;;;;;;19.77;10.32;;;5.50;99.90;;;;;;5007892;28;20050;-66
2021/12/28 09:10:56;;;;;;;14.35;8.23;;;5.70;99.90;;;;;;5011063;28;20042;-67
2021/12/28 09:13:24;;;;;;;17.83;9.57;;;5.80;99.90;;;;;;5011570;28;20491;-67
2021/12/28 09:15:51;;;;;;;14.50;8.73;;;5.80;99.90;;;;;;5011561;28;20164;-66
2021/12/28 09:18:18;;;;;;;16.02;9.00;;;5.80;99.90;;;;;;5005032;28;20060;-66
2021/12/28 09:20:46;;;;;;;15.07;8.70;;;5.90;99.90;;;;;;5011356;28;20041;-66
2021/12/28 09:23:14;;;;;;;13.20;7.90;;;5.90;99.90;;;;;;5010130;28;20475;-66
2021/12/28 09:26:02;;;;;;;15.48;7.00;;;5.80;99.90;;;;;;4999770;28;20494;-67
2021/12/28 09:28:29;;;;;;;10.32;6.30;;;5.80;99.90;;;;;;5009321;28;20116;-66
2021/12/28 09:30:57;;;;;;;11.95;6.63;;;5.80;99.90;;;;;;5010770;28;20042;-66
2021/12/28 09:33:24;;;;;;;9.85;5.57;;;5.80;99.90;;;;;;5010290;28;20100;-65
2021/12/28 09:35:52;;;;;;;15.30;7.22;;;5.80;99.90;;;;;;5009866;28;20045;-66
2021/12/28 09:38:22;;;;;;;13.68;6.35;;;5.90;99.90;;;;;;5008867;28;20058;-66
2021/12/28 09:40:50;;;;;;;12.80;6.72;;;5.80;99.90;;;;;;5005697;28;20077;-65
2021/12/28 09:43:19;;;;;;;10.30;5.53;;;5.80;99.90;;;;;;4998704;28;20133;-66
2021/12/28 09:45:46;;;;;;;9.18;5.38;;;5.90;99.90;;;;;;5011306;28;20125;-66
2021/12/28 09:48:14;;;;;;;11.02;5.80;;;6.00;99.90;;;;;;5008161;28;20045;-66
2021/12/28 09:50:42;;;;;;;10.43;5.65;;;6.00;99.90;;;;;;5025975;28;20066;-66
2021/12/28 09:53:13;;;;;;;8.38;5.07;;;6.10;99.90;;;;;;5008737;28;20046;-67
2021/12/28 09:55:41;;;;;;;9.47;5.13;;;6.10;99.90;;;;;;5010691;28;20459;-67
2021/12/28 09:58:09;;;;;;;9.90;4.70;;;6.20;99.90;;;;;;5010413;28;20123;-67
2021/12/28 10:00:56;;;;;;;9.50;4.40;;;6.20;99.90;;;;;;5010825;28;20049;-67
2021/12/28 10:03:23;;;;;;;10.18;5.05;;;6.20;99.90;;;;;;5008686;28;20054;-66
2021/12/28 10:05:51;;;;;;;8.55;4.95;;;6.20;99.90;;;;;;5010071;28;20050;-65
2021/12/28 10:08:23;;;;;;;8.13;5.00;;;6.10;99.90;;;;;;5010507;28;20412;-66
2021/12/28 10:10:55;;;;;;;9.02;4.82;;;6.20;99.90;;;;;;5010391;28;20073;-66
2021/12/28 10:13:30;;;;;;;8.50;4.95;;;6.20;99.90;;;;;;5014481;28;20060;-67
2021/12/28 10:15:57;;;;;;;8.20;4.70;;;6.30;99.90;;;;;;5008711;28;20054;-66
2021/12/28 10:18:25;;;;;;;8.05;4.18;;;6.40;99.90;;;;;;5010128;28;20037;-66
2021/12/28 10:20:58;;;;;;;6.85;3.80;;;6.40;99.90;;;;;;5009456;28;20042;-67
2021/12/28 10:23:29;;;;;;;8.82;4.20;;;6.60;99.90;;;;;;5010179;28;20137;-66
2021/12/28 10:26:04;;;;;;;8.27;4.10;;;6.70;99.90;;;;;;5009820;28;20050;-66
2021/12/28 10:28:36;;;;;;;7.63;4.40;;;6.70;99.90;;;;;;5010254;28;20073;-67
2021/12/28 10:31:18;;;;;;;9.35;4.90;;;6.80;99.90;;;;;;5009853;28;20784;-66
2021/12/28 10:33:46;;;;;;;7.82;4.63;;;6.80;99.90;;;;;;5010258;28;20038;-66
2021/12/28 10:36:15;;;;;;;12.43;5.13;;;6.90;99.90;;;;;;5008773;28;20056;-67
2021/12/28 10:38:48;;;;;;;10.90;5.20;;;6.90;99.90;;;;;;4996358;28;20129;-66
2021/12/28 10:41:19;;;;;;;8.68;4.45;;;6.90;99.90;;;;;;5009969;28;20045;-66
2021/12/28 10:43:50;;;;;;;7.90;3.80;;;6.90;99.90;;;;;;5009078;28;20038;-66
2021/12/28 10:46:23;;;;;;;6.32;3.05;;;7.00;99.90;;;;;;5009165;28;20489;-67
2021/12/28 10:48:55;;;;;;;7.25;4.15;;;7.00;99.90;;;;;;5007427;28;20844;-67
2021/12/28 10:51:34;;;;;;;6.55;3.20;;;7.10;99.90;;;;;;5006971;28;20214;-66
2021/12/28 10:56:37;;;;;;;6.47;2.72;;;7.40;99.90;;;;;;5009013;28;20037;-66
2021/12/28 10:59:09;;;;;;;6.22;2.88;;;7.50;99.90;;;;;;5009618;28;20066;-66
2021/12/28 11:01:38;;;;;;;6.55;2.75;;;7.70;99.90;;;;;;5009249;28;20049;-67
2021/12/28 11:04:12;;;;;;;5.38;2.47;;;7.70;99.90;;;;;;5011332;28;20039;-67
2021/12/28 11:06:41;;;;;;;8.52;2.90;;;7.80;99.90;;;;;;5005390;28;20092;-67
2021/12/28 11:09:16;;;;;;;6.57;3.35;;;7.90;99.90;;;;;;5012985;28;20048;-67
2021/12/28 11:11:44;;;;;;;4.40;2.53;;;7.80;99.90;;;;;;5011083;28;20046;-67
2021/12/28 11:14:17;;;;;;;4.45;2.40;;;7.80;99.90;;;;;;5009094;28;20115;-67
2021/12/28 11:16:56;;;;;;;5.20;1.98;;;7.70;99.90;;;;;;5014349;28;20042;-66
2021/12/28 11:19:37;;;;;;;5.32;2.33;;;7.60;99.90;;;;;;5008104;28;20132;-66
2021/12/28 11:22:11;;;;;;;3.63;1.40;;;7.70;99.90;;;;;;5007394;28;20092;-68
2021/12/28 11:24:43;;;;;;;3.03;1.40;;;7.70;99.90;;;;;;5007236;28;20104;-66
2021/12/28 11:27:19;;;;;;;3.95;1.73;;;7.60;99.90;;;;;;5006909;28;20060;-65
2021/12/28 11:29:59;;;;;;;3.55;1.40;;;7.70;99.90;;;;;;5006239;28;20041;-66
2021/12/28 11:32:27;;;;;;;5.07;2.15;;;7.60;99.90;;;;;;5008445;28;20117;-67
2021/12/28 11:34:55;;;;;;;2.78;1.40;;;7.60;99.90;;;;;;5007479;28;20076;-67
2021/12/28 11:37:26;;;;;;;4.78;1.77;;;7.60;99.90;;;;;;5009051;28;20088;-66
2021/12/28 11:39:59;;;;;;;4.65;1.90;;;7.50;99.90;;;;;;5009070;28;20042;-65
2021/12/28 11:42:30;;;;;;;8.07;4.15;;;7.60;99.90;;;;;;5009962;28;20196;-68
2021/12/28 11:44:59;;;;;;;18.67;9.32;;;7.60;99.90;;;;;;5007262;28;20034;-66
2021/12/28 11:47:26;;;;;;;5.88;1.90;;;7.60;99.90;;;;;;5005080;28;20041;-66
2021/12/28 11:49:57;;;;;;;6.22;2.17;;;7.50;99.90;;;;;;5008280;28;20042;-66
2021/12/28 11:52:26;;;;;;;5.25;2.20;;;7.60;99.90;;;;;;5007409;28;20065;-66
2021/12/28 11:54:54;;;;;;;6.35;1.95;;;7.70;99.90;;;;;;5008085;28;20056;-66
2021/12/28 11:57:26;;;;;;;4.63;2.30;;;7.70;99.90;;;;;;5008317;28;20388;-66
2021/12/28 11:59:55;;;;;;;;;;;7.70;99.90;;;;;;5003918;28;20049;-66
2021/12/28 12:02:37;;;;;;;3.90;1.88;;;7.70;99.90;;;;;;5012811;28;19925;-66
2021/12/28 12:05:30;;;;;;;6.85;2.50;;;7.70;99.90;;;;;;5008979;28;20045;-66
2021/12/28 12:08:13;;;;;;;6.20;2.13;;;7.70;99.90;;;;;;5008416;28;20046;-66
2021/12/28 12:10:46;;;;;;;4.90;2.20;;;7.80;99.90;;;;;;5006183;28;20038;-67
2021/12/28 12:13:25;;;;;;;8.32;3.20;;;7.80;99.90;;;;;;5008804;28;20042;-66
2021/12/28 12:16:12;;;;;;;5.22;2.10;;;7.80;99.90;;;;;;5023483;28;20054;-67
2021/12/28 12:18:49;;;;;;;7.00;2.42;;;7.80;99.90;;;;;;5008599;28;20049;-67
2021/12/28 12:21:36;;;;;;;4.47;2.13;;;7.80;99.90;;;;;;5008054;28;20049;-67
2021/12/28 12:24:03;;;;;;;6.18;2.60;;;7.80;99.90;;;;;;5007256;28;20045;-66
2021/12/28 12:26:34;;;;;;;7.78;2.72;;;7.80;99.90;;;;;;5006681;28;20046;-66
2021/12/28 12:29:17;;;;;;;5.00;2.47;;;7.70;99.90;;;;;;5010774;28;20074;-68
2021/12/28 12:31:45;;;;;;;6.93;2.83;;;7.80;99.90;;;;;;5005900;28;20034;-67
2021/12/28 12:34:36;;;;;;;5.47;2.15;;;7.90;99.90;;;;;;5008575;28;20108;-67
2021/12/28 12:37:21;;;;;;;6.45;2.25;;;7.90;99.90;;;;;;5007176;28;20046;-68
2021/12/28 12:39:56;;;;;;;6.45;3.13;;;7.90;99.90;;;;;;5009965;28;20103;-67
2021/12/28 12:42:23;;;;;;;5.82;2.78;;;7.80;99.90;;;;;;5010231;28;20050;-67
2021/12/28 12:44:50;;;;;;;7.13;2.72;;;7.80;99.90;;;;;;5010686;28;20034;-68
2021/12/28 12:47:19;;;;;;;6.55;2.78;;;7.80;99.90;;;;;;5011789;28;20493;-67
2021/12/28 12:50:04;;;;;;;5.85;3.10;;;8.00;99.90;;;;;;5011293;28;20133;-67
2021/12/28 12:52:32;;;;;;;4.20;2.33;;;8.10;99.90;;;;;;4998433;28;20048;-67
2021/12/28 12:55:02;;;;;;;5.20;2.60;;;8.10;99.90;;;;;;5010643;28;20050;-68
2021/12/28 12:57:31;;;;;;;5.10;2.22;;;8.10;99.90;;;;;;5010719;28;20168;-68
2021/12/28 13:00:15;;;;;;;4.93;2.40;;;8.20;99.90;;;;;;5011696;28;20045;-67